Airport Name : Fallon NAS

Other Name : Fallon NAS

ICAO : KNFL

IATA : NFL

FAA : NFL

Latitude : 39.416584

Longitude : -118.70098

Country : United States

Local Date and Time : 18 Jul 2024 09:40

 

TAF (Terminal Aerodrome Forecast)

TAF KNFL 1815/1915 VRB06KT 9999 FEW080 SCT140 SCT170 QNH3008INS FM182000 VRB06KT 9999 SCT080 SCT120 BKN180 QNH3000INS FM182300 23011KT 9999 SCT080 BKN120 BKN180 QNH3000INS TEMPO 1901/1905 VRB15G25KT 9999 VCSH SCT080CB BKN120 FM190600 VRB06KT 9999 SCT080 SCT120 BKN180 QNH3008INS TEMPO 1906/1912 9999 VCSH SCT080 SCT120 FM191400 VRB06KT 9999 FEW120 SCT180 QNH3014INS TX37/1823Z TN16/1912Z FS30003

 

METAR (METeorological Aerodrome Report)

KNFL 181554Z 24006KT 10SM SCT100 SCT150 27/01 A3016 RMK SLP177 T02720011

KNFL 181454Z 24003KT 10SM FEW080 BKN150 24/01 A3015 RMK AO2 SLP176 FU ALOFT SE-SW T02390011 53011

KNFL 181254Z AUTO 18004KT 10SM CLR 18/04 A3012 RMK AO2 SLP167 T01830039